Time;durP1;ratioP1;P1;durP2;ratioP2;P2;SDS_P1;SDS_P2;PMS_P1;PMS_P2;Temp;Humidity;BMP_temperature;BMP_pressure;BME280_temperature;BME280_humidity;BME280_pressure;Samples;Min_cycle;Max_cycle;Signal;HPM_P1;HPM_P2
2023/06/09 00:00:29;;;;;;;10.05;4.47;;;;;;;19.18;60.51;101362.16;5032499;28;20038;-63
2023/06/09 00:02:57;;;;;;;13.18;4.63;;;;;;;19.19;60.74;101359.06;5032352;28;20041;-63
2023/06/09 00:05:32;;;;;;;10.60;4.15;;;;;;;19.23;60.45;101357.31;5033951;28;20489;-61
2023/06/09 00:08:00;;;;;;;10.15;3.95;;;;;;;19.21;60.37;101354.06;5034147;28;20160;-64
2023/06/09 00:10:28;;;;;;;11.00;4.35;;;;;;;19.18;60.40;101351.94;5029457;28;20053;-62
2023/06/09 00:12:57;;;;;;;10.65;4.00;;;;;;;19.09;60.76;101348.28;5027619;28;20076;-65
2023/06/09 00:15:24;;;;;;;7.85;4.03;;;;;;;19.06;60.47;101352.47;5022881;28;20049;-63
2023/06/09 00:17:55;;;;;;;13.23;4.38;;;;;;;19.06;60.59;101340.63;5042853;28;20104;-61
2023/06/09 00:20:24;;;;;;;12.57;4.43;;;;;;;19.00;60.42;101350.16;5032715;28;20057;-68
2023/06/09 00:22:55;;;;;;;9.95;4.15;;;;;;;19.02;60.98;101350.66;5015359;28;20042;-66
2023/06/09 00:25:23;;;;;;;12.73;4.20;;;;;;;19.08;59.95;101341.94;5018520;28;20065;-62
2023/06/09 00:27:50;;;;;;;9.25;4.20;;;;;;;19.02;59.96;101345.94;5032462;28;20080;-63
2023/06/09 00:30:22;;;;;;;12.00;4.28;;;;;;;18.96;60.53;101336.16;5034274;28;20045;-63
2023/06/09 00:33:08;;;;;;;10.23;4.00;;;;;;;18.86;60.90;101342.75;5019059;28;20052;-64
2023/06/09 00:35:36;;;;;;;11.45;4.43;;;;;;;18.69;61.22;101342.56;5029674;28;20882;-63
2023/06/09 00:38:04;;;;;;;11.90;4.85;;;;;;;18.55;61.70;101339.81;5004534;28;20041;-62
2023/06/09 00:40:32;;;;;;;9.68;4.55;;;;;;;18.47;62.23;101341.38;5032595;28;20765;-62
2023/06/09 00:43:02;;;;;;;10.48;4.43;;;;;;;18.49;62.63;101338.28;5049886;28;20181;-64
2023/06/09 00:45:31;;;;;;;11.75;4.32;;;;;;;18.62;62.12;101342.97;5015682;28;20076;-62
2023/06/09 00:47:58;;;;;;;9.70;4.35;;;;;;;18.69;61.86;101337.84;5033227;28;20413;-62
2023/06/09 00:50:26;;;;;;;13.38;4.88;;;;;;;18.76;61.55;101334.69;5032527;28;20179;-63
2023/06/09 00:52:56;;;;;;;9.05;4.15;;;;;;;18.76;61.57;101340.22;5032337;28;20072;-62
2023/06/09 00:55:26;;;;;;;9.05;4.25;;;;;;;18.77;61.11;101335.50;5033812;28;20049;-63
2023/06/09 00:57:55;;;;;;;13.07;4.38;;;;;;;18.78;61.29;101337.13;5008168;28;20060;-65
2023/06/09 01:00:26;;;;;;;10.40;4.18;;;;;;;18.63;61.62;101339.06;5034613;28;20053;-64
2023/06/09 01:03:00;;;;;;;11.43;4.43;;;;;;;18.56;61.88;101333.16;5004774;28;20111;-63
2023/06/09 01:05:34;;;;;;;10.95;4.65;;;;;;;18.57;62.05;101334.81;5017750;28;20049;-63
2023/06/09 01:08:11;;;;;;;11.82;4.40;;;;;;;18.61;61.97;101330.28;5011808;28;20137;-63
2023/06/09 01:10:48;;;;;;;10.27;4.40;;;;;;;18.62;61.89;101326.41;5013823;28;20073;-63
2023/06/09 01:13:54;;;;;;;12.07;4.13;;;;;;;18.48;62.31;101322.84;5028740;28;20054;-63
2023/06/09 01:16:52;;;;;;;11.40;4.50;;;;;;;18.48;62.59;101325.63;5034217;28;20041;-63
2023/06/09 01:19:31;;;;;;;12.88;4.60;;;;;;;18.55;62.34;101326.00;5032679;28;20052;-62
2023/06/09 01:22:27;;;;;;;12.02;4.18;;;;;;;18.55;62.25;101330.72;5031952;28;20107;-64
2023/06/09 01:25:04;;;;;;;12.57;4.75;;;;;;;18.33;63.19;101325.94;5033236;28;20056;-63
2023/06/09 01:27:37;;;;;;;10.82;4.53;;;;;;;18.31;63.18;101321.53;5020401;28;20042;-63
2023/06/09 01:30:06;;;;;;;11.52;4.80;;;;;;;18.39;63.33;101330.22;5029858;28;20489;-63
2023/06/09 01:32:39;;;;;;;11.73;4.63;;;;;;;18.43;63.14;101334.81;5035914;28;20091;-63
2023/06/09 01:35:08;;;;;;;14.23;4.43;;;;;;;18.37;63.20;101329.72;5037035;28;20501;-62
2023/06/09 01:37:36;;;;;;;9.68;4.55;;;;;;;18.36;63.73;101322.56;5033446;28;20042;-64
2023/06/09 01:40:05;;;;;;;11.88;4.38;;;;;;;18.40;63.20;101318.03;5035740;28;20486;-62
2023/06/09 01:42:33;;;;;;;10.00;4.40;;;;;;;18.35;63.67;101326.44;5036020;28;20546;-64
2023/06/09 01:45:01;;;;;;;11.10;4.78;;;;;;;18.26;64.01;101329.94;5036094;28;20041;-64
2023/06/09 01:47:28;;;;;;;10.93;4.40;;;;;;;18.19;64.34;101323.19;5034054;28;20465;-63
2023/06/09 01:50:02;;;;;;;9.85;4.47;;;;;;;18.08;64.70;101328.09;5034893;28;20045;-62
2023/06/09 01:52:37;;;;;;;11.23;4.47;;;;;;;18.02;65.20;101326.56;5037059;28;20379;-62
2023/06/09 01:55:15;;;;;;;11.10;4.07;;;;;;;18.03;65.29;101322.69;5040575;28;20061;-64
2023/06/09 01:57:55;;;;;;;12.52;5.10;;;;;;;18.09;65.14;101319.53;5029397;28;20117;-62
2023/06/09 02:00:26;;;;;;;12.57;5.25;;;;;;;18.04;65.34;101332.59;5037136;28;20053;-63
2023/06/09 02:02:57;;;;;;;9.40;4.22;;;;;;;17.99;65.38;101327.16;5015661;28;20477;-63
2023/06/09 02:05:28;;;;;;;13.68;4.82;;;;;;;18.01;65.32;101317.47;5015743;28;20422;-63
2023/06/09 02:07:58;;;;;;;10.07;4.57;;;;;;;17.96;65.35;101314.81;5003653;28;20100;-62
2023/06/09 02:10:31;;;;;;;12.65;5.07;;;;;;;17.96;65.44;101317.56;5018558;28;20103;-64
2023/06/09 02:13:15;;;;;;;12.85;4.30;;;;;;;17.90;66.00;101304.22;5021191;28;20042;-64
2023/06/09 02:15:44;;;;;;;12.75;5.05;;;;;;;17.79;66.09;101298.03;5016609;28;20046;-62
2023/06/09 02:18:12;;;;;;;13.00;4.85;;;;;;;17.76;66.59;101301.41;5017338;28;20050;-62
2023/06/09 02:20:42;;;;;;;9.98;4.60;;;;;;;17.72;66.40;101298.41;5042334;28;20076;-61
2023/06/09 02:23:10;;;;;;;13.35;4.68;;;;;;;17.71;66.82;101296.81;5019441;28;20037;-62
2023/06/09 02:25:38;;;;;;;12.48;4.85;;;;;;;17.73;66.86;101304.78;5033805;28;20054;-62
2023/06/09 02:28:06;;;;;;;14.88;5.43;;;;;;;17.72;66.65;101297.63;5016449;28;20054;-62
2023/06/09 02:30:34;;;;;;;10.02;4.65;;;;;;;17.68;66.71;101298.22;5023774;28;20099;-63
2023/06/09 02:33:02;;;;;;;15.45;5.20;;;;;;;17.68;67.14;101295.47;5036292;28;20485;-63
2023/06/09 02:35:30;;;;;;;14.43;5.03;;;;;;;17.68;66.99;101302.94;5034775;28;20040;-63
2023/06/09 02:38:00;;;;;;;12.90;4.90;;;;;;;17.62;67.08;101299.44;5003026;28;20049;-63
2023/06/09 02:40:29;;;;;;;12.27;5.38;;;;;;;17.61;67.38;101294.25;5034171;28;20052;-62
2023/06/09 02:43:00;;;;;;;13.80;4.95;;;;;;;17.55;67.59;101301.75;5051772;28;20049;-63
2023/06/09 02:45:28;;;;;;;13.18;5.20;;;;;;;17.46;68.10;101296.16;5017361;28;20183;-63
2023/06/09 02:47:56;;;;;;;12.43;4.93;;;;;;;17.49;68.15;101304.94;5034002;28;20113;-63
2023/06/09 02:50:24;;;;;;;15.55;5.50;;;;;;;17.50;67.98;101301.06;5034493;28;20049;-62
2023/06/09 02:52:57;;;;;;;15.27;5.20;;;;;;;17.44;68.33;101298.38;5034914;28;20050;-63
2023/06/09 02:55:26;;;;;;;13.68;4.80;;;;;;;17.39;68.58;101298.47;5022992;28;20045;-63
2023/06/09 02:57:53;;;;;;;11.35;4.22;;;;;;;17.27;69.32;101303.66;5033647;28;20449;-62
2023/06/09 03:00:25;;;;;;;11.82;4.50;;;;;;;17.31;68.99;101299.16;5032660;28;20048;-62
2023/06/09 03:02:53;;;;;;;12.57;4.85;;;;;;;17.22;69.58;101311.97;5044642;28;20049;-64
2023/06/09 03:05:25;;;;;;;10.57;4.85;;;;;;;17.27;69.88;101308.31;5048104;28;20049;-61
2023/06/09 03:07:54;;;;;;;15.73;5.40;;;;;;;17.29;69.71;101303.34;5041384;28;20087;-62
2023/06/09 03:10:23;;;;;;;13.15;4.90;;;;;;;17.26;69.37;101307.50;5020325;28;20045;-62
2023/06/09 03:12:51;;;;;;;15.73;5.65;;;;;;;17.23;69.74;101305.38;5045367;28;20065;-60
2023/06/09 03:15:20;;;;;;;11.60;4.90;;;;;;;17.11;70.16;101300.31;5047392;28;20105;-61
2023/06/09 03:17:48;;;;;;;14.07;4.68;;;;;;;17.06;70.90;101305.91;5039370;28;20069;-63
2023/06/09 03:20:19;;;;;;;12.52;4.63;;;;;;;17.13;70.98;101303.59;5034544;28;20045;-64
2023/06/09 03:22:52;;;;;;;10.88;4.50;;;;;;;17.14;70.15;101307.16;5034700;28;20051;-63
2023/06/09 03:25:20;;;;;;;14.13;5.30;;;;;;;17.09;70.82;101302.56;5034298;28;20045;-63
2023/06/09 03:27:48;;;;;;;16.88;4.95;;;;;;;17.04;71.17;101308.97;5033657;28;20068;-62
2023/06/09 03:30:16;;;;;;;11.48;4.88;;;;;;;17.09;70.84;101307.25;5024126;28;20053;-63
2023/06/09 03:32:46;;;;;;;14.07;4.57;;;;;;;17.01;71.17;101298.56;5014683;28;20038;-62
2023/06/09 03:35:15;;;;;;;10.60;4.43;;;;;;;16.95;71.53;101309.94;5014611;28;20161;-62
2023/06/09 03:37:43;;;;;;;14.40;5.72;;;;;;;16.95;71.78;101307.19;5014268;28;20045;-64
2023/06/09 03:40:11;;;;;;;12.13;5.35;;;;;;;17.06;71.61;101314.19;5053914;28;20071;-62
2023/06/09 03:42:42;;;;;;;10.27;4.88;;;;;;;17.03;71.26;101312.84;5048943;28;20155;-64
2023/06/09 03:45:10;;;;;;;15.68;5.53;;;;;;;17.01;71.59;101308.75;5011449;28;20495;-63
2023/06/09 03:47:40;;;;;;;13.80;5.13;;;;;;;16.95;72.00;101304.44;5030676;28;20046;-65
2023/06/09 03:50:12;;;;;;;11.77;4.90;;;;;;;16.97;72.20;101318.72;5017692;28;20041;-64
2023/06/09 03:52:40;;;;;;;11.18;4.75;;;;;;;17.00;72.13;101321.72;5033139;28;20037;-64
2023/06/09 03:55:12;;;;;;;13.70;4.70;;;;;;;17.00;72.02;101324.47;5065415;28;20095;-63
2023/06/09 03:57:41;;;;;;;12.07;5.47;;;;;;;17.02;71.95;101324.97;5032721;28;20061;-63
2023/06/09 04:00:15;;;;;;;15.07;5.80;;;;;;;17.00;72.12;101324.47;5049243;28;20107;-64
2023/06/09 04:02:46;;;;;;;11.73;4.78;;;;;;;16.91;73.20;101320.75;5032129;28;20124;-62
2023/06/09 04:05:16;;;;;;;15.80;5.38;;;;;;;16.94;72.63;101322.09;5041015;28;20068;-63
2023/06/09 04:07:46;;;;;;;10.93;4.40;;;;;;;16.94;73.15;101325.66;5048302;28;20049;-64
2023/06/09 04:10:14;;;;;;;13.52;4.78;;;;;;;16.95;72.89;101315.44;5048505;28;20242;-62
2023/06/09 04:12:42;;;;;;;11.73;5.15;;;;;;;16.88;73.27;101321.31;5030539;28;20052;-64
2023/06/09 04:15:10;;;;;;;14.60;5.15;;;;;;;16.91;73.08;101329.00;5037160;28;20449;-64
2023/06/09 04:17:41;;;;;;;11.38;4.97;;;;;;;16.92;73.50;101325.13;5047922;28;20053;-64
2023/06/09 04:20:10;;;;;;;16.42;5.45;;;;;;;16.86;73.76;101323.59;5032687;28;20084;-63
2023/06/09 04:22:51;;;;;;;11.68;5.15;;;;;;;16.82;74.57;101336.28;5013343;28;20044;-66
2023/06/09 04:25:27;;;;;;;13.00;4.88;;;;;;;16.84;74.57;101323.06;5014877;28;20045;-63
2023/06/09 04:28:05;;;;;;;14.98;5.25;;;;;;;16.85;74.95;101316.41;4996098;28;20050;-64
2023/06/09 04:30:34;;;;;;;14.48;5.38;;;;;;;16.87;74.63;101330.72;5012961;28;20080;-65
2023/06/09 04:33:05;;;;;;;15.25;5.40;;;;;;;16.90;75.09;101330.09;5029313;28;20486;-62
2023/06/09 04:35:34;;;;;;;12.82;5.13;;;;;;;16.95;74.96;101323.72;5045670;28;20052;-63
2023/06/09 04:38:03;;;;;;;16.48;5.78;;;;;;;16.92;75.02;101330.63;5025834;28;20443;-63
2023/06/09 04:40:37;;;;;;;12.70;5.35;;;;;;;16.88;75.47;101332.34;5012781;28;20060;-63
2023/06/09 04:43:07;;;;;;;15.90;5.10;;;;;;;16.88;75.75;101340.59;5030772;28;20548;-62
2023/06/09 04:45:35;;;;;;;13.45;5.40;;;;;;;16.94;75.57;101328.41;5031817;28;20061;-61
2023/06/09 04:48:12;;;;;;;14.68;5.30;;;;;;;16.97;75.35;101332.50;5032308;28;20489;-62
2023/06/09 04:50:44;;;;;;;11.75;5.45;;;;;;;17.01;75.66;101333.53;5032211;28;20053;-62
2023/06/09 04:53:15;;;;;;;14.68;5.50;;;;;;;16.99;75.85;101331.06;5029684;28;20406;-62
2023/06/09 04:55:48;;;;;;;16.30;6.20;;;;;;;17.00;76.43;101337.38;4992120;28;20103;-65
2023/06/09 04:58:18;;;;;;;15.75;6.00;;;;;;;16.95;76.76;101337.47;5048787;28;20049;-63
2023/06/09 05:00:45;;;;;;;12.45;6.28;;;;;;;16.86;77.50;101337.34;5032452;28;20045;-64
2023/06/09 05:03:17;;;;;;;15.77;6.40;;;;;;;16.81;78.00;101329.13;5039564;28;20057;-64
2023/06/09 05:05:52;;;;;;;18.40;5.90;;;;;;;16.69;78.72;101337.84;5029805;28;20465;-66
2023/06/09 05:08:22;;;;;;;17.35;6.20;;;;;;;16.77;79.06;101339.09;5013580;28;20128;-66
2023/06/09 05:10:52;;;;;;;14.95;5.97;;;;;;;16.85;78.49;101340.38;5039651;28;20172;-64
2023/06/09 05:13:21;;;;;;;16.17;6.30;;;;;;;16.82;79.07;101341.78;4327343;28;10000687;-66
2023/06/09 05:15:49;;;;;;;13.75;6.10;;;;;;;16.88;79.06;101348.03;5029310;28;20069;-66
2023/06/09 05:18:17;;;;;;;18.15;6.05;;;;;;;16.91;79.05;101339.16;5033080;28;20052;-66
2023/06/09 05:20:46;;;;;;;13.27;6.00;;;;;;;16.91;79.69;101334.50;5029635;28;20049;-66
2023/06/09 05:23:16;;;;;;;14.60;6.30;;;;;;;16.93;79.73;101354.31;5047807;28;20049;-65
2023/06/09 05:25:44;;;;;;;21.90;6.85;;;;;;;16.99;79.74;101339.34;5045595;28;20050;-66
2023/06/09 05:28:12;;;;;;;15.20;6.00;;;;;;;17.06;80.18;101346.41;5040132;28;20049;-67
2023/06/09 05:30:40;;;;;;;15.57;5.53;;;;;;;17.14;80.01;101337.47;5017437;28;20054;-65
2023/06/09 05:33:09;;;;;;;17.58;7.43;;;;;;;17.21;80.03;101346.16;5029237;28;20857;-64
2023/06/09 05:35:37;;;;;;;23.00;6.63;;;;;;;17.17;80.59;101345.94;5015557;28;20100;-65
2023/06/09 05:38:07;;;;;;;15.55;6.40;;;;;;;17.23;80.98;101347.50;5065271;28;20053;-67
2023/06/09 05:40:35;;;;;;;20.13;6.40;;;;;;;17.25;80.73;101344.44;5034084;28;20057;-66
2023/06/09 05:43:03;;;;;;;15.40;6.50;;;;;;;17.31;80.54;101348.72;5033221;28;20084;-67
2023/06/09 05:45:30;;;;;;;15.35;6.93;;;;;;;17.36;80.52;101345.91;5032701;28;20080;-67
2023/06/09 05:47:58;;;;;;;18.00;7.50;;;;;;;17.35;80.62;101349.78;5030130;28;20510;-67
2023/06/09 05:50:26;;;;;;;24.08;8.02;;;;;;;17.31;81.51;101351.50;5015430;28;20136;-67
2023/06/09 05:52:53;;;;;;;18.05;7.13;;;;;;;17.34;81.97;101355.56;5032709;28;20084;-66
2023/06/09 05:55:21;;;;;;;14.90;6.95;;;;;;;17.41;81.59;101356.00;5032910;28;20054;-68
2023/06/09 05:57:49;;;;;;;14.60;6.55;;;;;;;17.48;81.22;101353.69;5030878;28;20093;-65
2023/06/09 06:00:17;;;;;;;18.00;7.38;;;;;;;17.53;81.19;101344.53;5030751;28;20041;-66
2023/06/09 06:02:45;;;;;;;16.98;7.68;;;;;;;17.57;81.08;101351.06;5017507;28;20045;-64
2023/06/09 06:05:13;;;;;;;14.18;7.05;;;;;;;17.57;82.06;101356.59;4684457;28;10000698;-66
2023/06/09 06:07:41;;;;;;;18.77;7.72;;;;;;;17.58;82.65;101345.28;5057420;28;20046;-65
2023/06/09 06:10:09;;;;;;;17.58;6.40;;;;;;;17.61;82.73;101341.91;5015300;28;20053;-65
2023/06/09 06:12:38;;;;;;;14.30;5.82;;;;;;;17.69;82.58;101340.38;5026878;28;20052;-63
2023/06/09 06:15:06;;;;;;;15.93;6.13;;;;;;;17.78;82.58;101344.06;5035120;28;20444;-64
2023/06/09 06:17:34;;;;;;;13.82;6.35;;;;;;;17.87;82.55;101339.53;5036177;28;20114;-64
2023/06/09 06:20:05;;;;;;;19.80;6.90;;;;;;;17.93;81.69;101342.19;5034796;28;20116;-64
2023/06/09 06:22:33;;;;;;;16.45;6.47;;;;;;;17.96;82.06;101349.84;5052244;28;20125;-65
2023/06/09 06:25:01;;;;;;;14.98;7.15;;;;;;;18.05;81.95;101350.78;5032690;28;20041;-65
2023/06/09 06:27:29;;;;;;;22.25;7.80;;;;;;;18.03;81.77;101347.50;5034796;28;20419;-65
2023/06/09 06:29:57;;;;;;;18.42;8.20;;;;;;;18.02;81.63;101351.38;5035418;28;20085;-66
2023/06/09 06:32:25;;;;;;;19.00;7.50;;;;;;;18.02;82.13;101351.38;5018723;28;20045;-66
2023/06/09 06:34:53;;;;;;;15.82;7.47;;;;;;;18.03;83.06;101350.25;5035657;28;20050;-66
2023/06/09 06:37:22;;;;;;;15.70;7.38;;;;;;;18.06;82.75;101344.13;5027162;28;20107;-66
2023/06/09 06:39:50;;;;;;;17.88;8.43;;;;;;;18.09;83.86;101352.63;5016418;28;20121;-64
2023/06/09 06:42:17;;;;;;;19.50;7.85;;;;;;;18.14;82.69;101348.94;5016546;28;20045;-65
2023/06/09 06:44:54;;;;;;;20.17;8.05;;;;;;;18.17;82.86;101348.31;5028562;28;20045;-66
2023/06/09 06:47:24;;;;;;;17.83;7.55;;;;;;;18.17;83.04;101351.06;5002616;28;20054;-66
2023/06/09 06:49:52;;;;;;;17.75;7.90;;;;;;;18.23;82.88;101352.63;5026068;28;20045;-66
2023/06/09 06:52:20;;;;;;;18.10;7.22;;;;;;;18.28;83.53;101352.50;5031934;28;20473;-66
2023/06/09 06:54:47;;;;;;;18.35;7.85;;;;;;;18.34;82.97;101358.72;5032813;28;20045;-65
2023/06/09 06:57:16;;;;;;;21.40;8.55;;;;;;;18.38;84.04;101350.69;5034355;28;20123;-66
2023/06/09 06:59:43;;;;;;;20.85;7.57;;;;;;;18.43;83.44;101350.56;4998735;28;20137;-65
2023/06/09 07:02:11;;;;;;;15.43;8.10;;;;;;;18.48;83.24;101344.94;5016246;28;20133;-65
2023/06/09 07:04:39;;;;;;;20.77;8.93;;;;;;;18.51;82.90;101349.81;5015185;28;20049;-64
2023/06/09 07:07:07;;;;;;;23.92;8.98;;;;;;;18.55;82.56;101350.84;5018801;28;20058;-64
2023/06/09 07:09:35;;;;;;;20.70;8.32;;;;;;;18.57;82.62;101356.88;5046184;28;20053;-63
2023/06/09 07:12:03;;;;;;;15.13;7.85;;;;;;;18.59;82.67;101349.13;5047397;28;20092;-64
2023/06/09 07:14:33;;;;;;;18.58;8.05;;;;;;;18.61;83.00;101348.78;5036032;28;20116;-65
2023/06/09 07:17:01;;;;;;;21.35;8.68;;;;;;;18.62;82.90;101354.00;5041225;28;20049;-65
2023/06/09 07:19:29;;;;;;;15.75;8.05;;;;;;;18.65;82.84;101350.63;5024181;28;20053;-59
2023/06/09 07:21:57;;;;;;;21.27;8.82;;;;;;;18.68;83.71;101352.75;5043832;28;20119;-64
2023/06/09 07:24:24;;;;;;;22.38;8.77;;;;;;;18.73;83.25;101351.81;5045176;28;20441;-66
2023/06/09 07:26:53;;;;;;;19.77;8.52;;;;;;;18.78;84.08;101342.66;5016960;28;20099;-65
2023/06/09 07:29:21;;;;;;;20.08;8.73;;;;;;;18.86;83.71;101344.69;5034777;28;20717;-65
2023/06/09 07:31:48;;;;;;;19.30;8.70;;;;;;;18.92;83.47;101347.00;5035052;28;20041;-66
2023/06/09 07:34:16;;;;;;;20.08;8.50;;;;;;;18.98;83.69;101346.88;5033764;28;20413;-65
2023/06/09 07:36:50;;;;;;;19.70;8.45;;;;;;;19.02;83.77;101340.41;5034851;28;20053;-65
2023/06/09 07:39:18;;;;;;;18.42;8.18;;;;;;;19.08;84.04;101346.66;5034817;28;20037;-63
2023/06/09 07:41:46;;;;;;;18.75;8.27;;;;;;;19.18;83.97;101340.06;5022949;28;20545;-65
2023/06/09 07:44:14;;;;;;;21.10;9.15;;;;;;;19.26;83.28;101344.81;5032388;28;20072;-65
2023/06/09 07:46:42;;;;;;;22.25;8.98;;;;;;;19.37;83.09;101344.25;5033006;28;20085;-64
2023/06/09 07:49:10;;;;;;;20.50;9.60;;;;;;;19.40;82.22;101342.81;5034121;28;20045;-64
2023/06/09 07:51:41;;;;;;;22.25;9.45;;;;;;;19.42;82.36;101346.09;5029606;28;20053;-65
2023/06/09 07:54:09;;;;;;;18.52;8.55;;;;;;;19.46;83.34;101337.97;5032311;28;20446;-64
2023/06/09 07:56:37;;;;;;;19.60;9.27;;;;;;;19.50;82.55;101342.53;5032871;28;20053;-65
2023/06/09 07:59:05;;;;;;;18.73;8.77;;;;;;;19.53;82.66;101343.88;5049287;28;20389;-65
2023/06/09 08:01:33;;;;;;;20.25;9.55;;;;;;;19.63;82.33;101342.81;5017478;28;20049;-65
2023/06/09 08:04:02;;;;;;;21.20;9.68;;;;;;;19.65;81.79;101351.56;5022851;28;20042;-66
2023/06/09 08:06:30;;;;;;;20.42;10.15;;;;;;;19.73;82.10;101345.31;5014939;28;20049;-64
2023/06/09 08:08:58;;;;;;;21.40;9.32;;;;;;;19.86;81.32;101335.28;5014193;28;20046;-64
2023/06/09 08:11:26;;;;;;;16.90;9.00;;;;;;;19.94;80.70;101349.19;5041813;28;20049;-64
2023/06/09 08:13:53;;;;;;;17.98;8.98;;;;;;;19.98;80.94;101333.56;5033393;28;20504;-63
2023/06/09 08:16:21;;;;;;;16.95;9.27;;;;;;;20.06;80.21;101336.66;5033468;28;20076;-65
2023/06/09 08:18:49;;;;;;;17.92;9.38;;;;;;;20.04;80.28;101344.50;5032682;28;20222;-65
2023/06/09 08:21:17;;;;;;;17.45;9.05;;;;;;;20.14;79.98;101342.25;5036683;28;20103;-65
2023/06/09 08:23:45;;;;;;;23.85;9.13;;;;;;;20.19;80.49;101350.41;5033204;28;20056;-65
2023/06/09 08:26:13;;;;;;;23.75;8.68;;;;;;;20.21;79.36;101341.78;5033812;28;20543;-65
2023/06/09 08:28:41;;;;;;;17.33;9.02;;;;;;;20.37;79.06;101345.75;5065257;28;20061;-63
2023/06/09 08:31:09;;;;;;;18.48;9.02;;;;;;;20.44;78.40;101339.72;5032493;28;20037;-65
2023/06/09 08:33:37;;;;;;;15.10;8.95;;;;;;;20.41;78.78;101340.38;5015829;28;20056;-66
2023/06/09 08:36:05;;;;;;;20.00;9.27;;;;;;;20.37;79.21;101331.06;5034281;28;20053;-65
2023/06/09 08:38:34;;;;;;;17.45;8.73;;;;;;;20.47;79.67;101338.25;5033807;28;20052;-66
2023/06/09 08:41:07;;;;;;;18.02;8.40;;;;;;;20.57;80.21;101333.28;5017415;28;20048;-65
2023/06/09 08:43:35;;;;;;;17.08;8.63;;;;;;;20.63;79.00;101328.38;5012740;28;20100;-66
2023/06/09 08:46:09;;;;;;;19.50;9.63;;;;;;;20.72;77.72;101334.75;5030295;28;20072;-65
2023/06/09 08:48:49;;;;;;;21.15;9.07;;;;;;;20.71;78.15;101335.06;5034220;28;20056;-65
2023/06/09 08:51:17;;;;;;;22.50;9.50;;;;;;;20.78;77.39;101336.25;5032446;28;20057;-65
2023/06/09 08:53:45;;;;;;;15.02;8.15;;;;;;;20.87;76.11;101329.88;5032272;28;20095;-64
2023/06/09 08:56:12;;;;;;;21.92;8.68;;;;;;;20.88;75.94;101331.50;5031294;28;20073;-64
2023/06/09 08:58:41;;;;;;;14.73;7.85;;;;;;;20.89;75.85;101333.13;5033260;28;20081;-64
2023/06/09 09:01:09;;;;;;;17.05;7.50;;;;;;;20.89;74.18;101333.13;5017484;28;20122;-65
2023/06/09 09:03:37;;;;;;;16.80;7.88;;;;;;;21.03;73.29;101342.09;5033185;28;20083;-65
2023/06/09 09:06:05;;;;;;;14.30;8.10;;;;;;;21.15;72.00;101341.44;5031879;28;20489;-65
2023/06/09 09:08:32;;;;;;;16.20;9.20;;;;;;;21.31;72.67;101330.66;5029278;28;20076;-65
2023/06/09 09:11:00;;;;;;;16.08;7.80;;;;;;;21.30;73.40;101326.28;5033417;28;20050;-64
2023/06/09 09:13:30;;;;;;;18.33;7.18;;;;;;;21.27;72.64;101319.44;5013606;28;20046;-64
2023/06/09 09:16:00;;;;;;;15.60;7.38;;;;;;;21.27;71.90;101325.78;5028906;28;20081;-64
2023/06/09 09:18:32;;;;;;;16.15;7.28;;;;;;;21.35;71.01;101321.34;5014217;28;20046;-66
2023/06/09 09:21:01;;;;;;;12.45;6.65;;;;;;;21.38;70.16;101322.66;5016354;28;20088;-66
2023/06/09 09:23:32;;;;;;;17.40;8.52;;;;;;;21.38;69.36;101317.09;5007536;28;20042;-64
2023/06/09 09:26:03;;;;;;;16.35;8.15;;;;;;;21.42;70.27;101326.44;5038018;28;20049;-65
2023/06/09 09:28:39;;;;;;;13.65;7.72;;;;;;;21.45;70.39;101318.28;5036139;28;20046;-65
2023/06/09 09:31:11;;;;;;;14.55;8.02;;;;;;;21.54;70.55;101309.13;5035085;28;20041;-63
2023/06/09 09:33:47;;;;;;;17.80;7.70;;;;;;;21.62;70.65;101303.56;5018816;28;20067;-64
2023/06/09 09:36:15;;;;;;;18.00;8.43;;;;;;;21.69;69.76;101306.63;5030318;28;20041;-63
2023/06/09 09:38:44;;;;;;;13.75;8.05;;;;;;;21.87;68.30;101299.03;5003238;28;20050;-65
2023/06/09 09:41:15;;;;;;;20.70;8.52;;;;;;;22.09;67.35;101302.69;5019176;28;20520;-63
2023/06/09 09:43:46;;;;;;;13.63;7.72;;;;;;;22.10;66.88;101307.94;5034066;28;20087;-62
2023/06/09 09:46:19;;;;;;;14.68;7.25;;;;;;;21.99;67.45;101303.09;5030354;28;20482;-64
2023/06/09 09:48:49;;;;;;;16.85;8.85;;;;;;;22.01;66.89;101307.16;5016224;28;20085;-65
2023/06/09 09:51:19;;;;;;;16.52;8.60;;;;;;;22.12;66.03;101304.78;5024496;28;20493;-65
2023/06/09 09:53:49;;;;;;;15.23;7.93;;;;;;;22.22;65.77;101300.84;5035565;28;20081;-63
2023/06/09 09:56:23;;;;;;;17.08;7.95;;;;;;;22.34;66.03;101303.72;5033619;28;20049;-67
2023/06/09 09:58:53;;;;;;;14.00;7.47;;;;;;;22.49;64.86;101305.09;5030173;28;20045;-64
2023/06/09 10:01:26;;;;;;;15.73;7.45;;;;;;;22.45;64.13;101296.63;5048403;28;20060;-66
2023/06/09 10:03:55;;;;;;;17.42;6.93;;;;;;;22.55;62.72;101300.97;5064562;28;20046;-65
2023/06/09 10:06:27;;;;;;;14.98;6.85;;;;;;;22.59;61.20;101299.16;5040012;28;20376;-66
2023/06/09 10:08:57;;;;;;;20.45;7.35;;;;;;;22.67;60.74;101300.22;5034837;28;20053;-65
2023/06/09 10:11:34;;;;;;;15.68;7.18;;;;;;;22.68;60.15;101297.13;5019740;28;20045;-65
2023/06/09 10:14:02;;;;;;;13.60;7.03;;;;;;;22.83;59.86;101292.09;5052496;28;20091;-65
2023/06/09 10:16:30;;;;;;;11.32;7.03;;;;;;;22.82;59.19;101291.25;5016384;28;20426;-65
2023/06/09 10:18:59;;;;;;;15.32;7.28;;;;;;;22.75;59.50;101285.44;5032071;28;20159;-62
2023/06/09 10:21:27;;;;;;;12.93;7.03;;;;;;;22.86;60.88;101286.66;5062416;28;20089;-63
2023/06/09 10:23:56;;;;;;;16.17;7.72;;;;;;;23.01;61.10;101284.44;5016118;28;20054;-66
2023/06/09 10:26:27;;;;;;;14.48;7.80;;;;;;;23.12;60.28;101294.00;5016092;28;20058;-64
2023/06/09 10:28:54;;;;;;;13.40;7.43;;;;;;;23.09;60.05;101281.59;5027303;28;20053;-63
2023/06/09 10:31:23;;;;;;;15.40;7.10;;;;;;;23.00;59.92;101289.19;5035646;28;20449;-65
2023/06/09 10:33:53;;;;;;;32.38;15.20;;;;;;;23.03;59.09;101282.94;5050763;28;20519;-65
2023/06/09 10:36:21;;;;;;;19.67;8.50;;;;;;;23.04;57.64;101276.25;4999104;28;20038;-65
2023/06/09 10:38:53;;;;;;;142.00;78.38;;;;;;;22.91;58.13;101282.88;5020489;28;20058;-65
2023/06/09 10:41:37;;;;;;;145.63;78.25;;;;;;;22.90;55.54;101275.69;5034363;28;20045;-64
2023/06/09 10:44:33;;;;;;;13.70;6.30;;;;;;;23.10;54.70;101274.06;5034309;28;20050;-66
2023/06/09 10:47:01;;;;;;;20.10;11.18;;;;;;;23.21;54.52;101269.69;4332514;28;9999896;-65
2023/06/09 10:49:35;;;;;;;12.93;6.90;;;;;;;23.35;53.82;101259.06;5029779;28;20076;-65
2023/06/09 10:52:08;;;;;;;13.98;8.10;;;;;;;23.36;55.98;101263.47;5031251;28;20107;-66
2023/06/09 10:54:35;;;;;;;17.88;7.82;;;;;;;23.48;57.09;101261.88;5013911;28;20089;-66
2023/06/09 10:57:34;;;;;;;24.77;13.85;;;;;;;23.45;57.48;101262.56;5047035;28;20065;-65
2023/06/09 11:00:10;;;;;;;13.63;6.38;;;;;;;23.44;55.68;101258.16;5029020;28;20079;-65
2023/06/09 11:03:08;;;;;;;13.95;6.93;;;;;;;23.45;52.47;101255.03;5030094;28;20037;-67
2023/06/09 11:05:43;;;;;;;17.05;8.65;;;;;;;23.52;52.01;101248.88;5020866;28;20085;-67
2023/06/09 11:08:11;;;;;;;11.23;5.57;;;;;;;23.67;51.94;101250.16;5014753;28;20057;-65
2023/06/09 11:10:39;;;;;;;18.75;8.82;;;;;;;23.71;51.25;101249.13;5037962;28;20449;-66
2023/06/09 11:13:40;;;;;;;15.32;9.10;;;;;;;23.73;51.21;101241.28;5039480;28;20049;-65
2023/06/09 11:16:09;;;;;;;28.80;15.77;;;;;;;23.70;51.63;101235.59;5035466;28;20791;-66
2023/06/09 11:18:38;;;;;;;13.35;7.03;;;;;;;23.93;51.95;101245.13;5035162;28;20045;-66
2023/06/09 11:21:16;;;;;;;14.98;5.70;;;;;;;24.10;50.83;101243.22;5035816;28;20053;-64
2023/06/09 11:24:00;;;;;;;14.82;8.18;;;;;;;24.08;50.29;101246.38;5048385;28;20092;-62
2023/06/09 11:26:29;;;;;;;22.38;11.07;;;;;;;24.04;49.93;101239.88;5024348;28;20045;-65
2023/06/09 11:28:57;;;;;;;12.55;5.97;;;;;;;24.14;49.44;101239.41;5047553;28;20435;-66
2023/06/09 11:31:26;;;;;;;10.65;5.95;;;;;;;24.22;49.40;101224.56;5047538;28;20054;-65